Time;durP1;ratioP1;P1;durP2;ratioP2;P2;SDS_P1;SDS_P2;PMS_P1;PMS_P2;Temp;Humidity;BMP_temperature;BMP_pressure;BME280_temperature;BME280_humidity;BME280_pressure;Samples;Min_cycle;Max_cycle;Signal;HPM_P1;HPM_P2
2021/06/22 12:57:21;;;;;;;5.03;3.83;;;;;;;37.22;31.49;99125.81;4545782;26;34734;-88
2021/06/22 12:59:51;;;;;;;4.65;3.37;;;;;;;37.67;32.05;99126.91;4371257;32;33779;-80
2021/06/22 13:02:21;;;;;;;4.57;4.12;;;;;;;37.64;32.95;99135.88;4364729;32;35699;-78
2021/06/22 13:04:51;;;;;;;6.10;3.87;;;;;;;38.26;29.58;99125.63;4376905;32;33717;-77
2021/06/22 13:07:24;;;;;;;11.38;3.35;;;;;;;38.72;29.30;99123.38;4392498;32;34724;-79
2021/06/22 13:09:53;;;;;;;9.80;2.80;;;;;;;38.60;30.49;99120.56;4387940;32;34466;-80
2021/06/22 13:12:28;;;;;;;12.25;5.05;;;;;;;38.67;29.21;99117.25;4373279;32;32954;-78
2021/06/22 13:14:57;;;;;;;4.00;3.10;;;;;;;38.71;29.33;99112.59;4393930;32;32985;-79
2021/06/22 13:17:27;;;;;;;6.22;3.25;;;;;;;38.62;30.64;99117.44;4380427;32;34425;-81
2021/06/22 13:20:00;;;;;;;3.60;3.30;;;;;;;37.71;30.22;99117.56;4376623;32;34381;-80
2021/06/22 13:22:47;;;;;;;2.22;2.08;;;;;;;38.78;30.26;99108.09;4390131;32;33977;-80
2021/06/22 13:25:16;;;;;;;3.90;3.20;;;;;;;39.32;28.33;99108.78;4385887;32;33701;-81
2021/06/22 13:27:46;;;;;;;5.37;3.05;;;;;;;39.89;27.57;99118.59;4361439;32;37793;-79
2021/06/22 13:30:24;;;;;;;3.12;2.85;;;;;;;39.34;28.95;99114.81;4375291;32;34353;-80
2021/06/22 13:32:57;;;;;;;4.78;2.78;;;;;;;39.57;29.97;99111.19;4383882;32;32858;-81
2021/06/22 13:35:26;;;;;;;4.70;2.90;;;;;;;38.82;30.35;99111.03;4389584;32;33681;-80
2021/06/22 13:37:57;;;;;;;7.07;4.00;;;;;;;38.93;29.66;99103.84;4395917;32;33443;-81
2021/06/22 13:40:31;;;;;;;3.90;2.12;;;;;;;39.06;29.13;99111.88;4362044;32;35881;-83
2021/06/22 13:43:41;;;;;;;3.50;3.20;;;;;;;38.50;29.79;99109.06;4375528;32;33861;-81
2021/06/22 13:46:25;;;;;;;6.20;2.70;;;;;;;38.21;30.64;99107.19;4315569;33;33612;-81
2021/06/22 13:48:55;;;;;;;4.68;2.83;;;;;;;38.67;30.35;99108.91;4310123;33;36630;-80
2021/06/22 13:51:26;;;;;;;5.47;3.03;;;;;;;37.59;32.59;99116.66;4313349;33;36349;-81
2021/06/22 13:54:05;;;;;;;6.15;3.35;;;;;;;38.07;31.81;99109.47;4312457;33;33219;-79
2021/06/22 13:56:34;;;;;;;4.53;2.87;;;;;;;38.66;30.32;99110.84;4307732;33;33406;-81
2021/06/22 13:59:02;;;;;;;4.22;3.33;;;;;;;38.83;30.59;99107.09;4308115;33;34859;-81
2021/06/22 14:01:33;;;;;;;6.70;3.37;;;;;;;37.97;31.71;99112.66;4307661;33;34216;-82
2021/06/22 14:04:02;;;;;;;4.80;3.35;;;;;;;38.14;31.52;99111.69;4305942;33;33844;-81
2021/06/22 14:06:30;;;;;;;2.90;2.70;;;;;;;37.26;32.31;99106.53;4301934;33;33776;-81
2021/06/22 14:09:01;;;;;;;9.07;3.60;;;;;;;37.91;32.06;99107.59;4307273;33;34092;-80
2021/06/22 14:11:29;;;;;;;8.18;3.12;;;;;;;37.51;33.70;99113.94;4308180;33;34082;-84
2021/06/22 14:13:58;;;;;;;4.90;4.37;;;;;;;36.65;34.44;99123.72;4307909;33;33071;-81
2021/06/22 14:16:32;;;;;;;5.93;3.17;;;;;;;37.62;33.05;99117.94;4298111;33;32146;-82
2021/06/22 14:19:03;;;;;;;6.25;3.40;;;;;;;37.57;34.21;99116.19;4285053;33;35983;-83
2021/06/22 14:21:32;;;;;;;9.18;4.15;;;;;;;37.33;33.40;99121.50;4362179;32;33630;-83
2021/06/22 14:24:00;;;;;;;4.90;4.50;;;;;;;36.91;34.07;99122.50;4366724;32;33460;-81
2021/06/22 14:26:29;;;;;;;4.03;3.70;;;;;;;36.95;33.38;99117.91;4359298;32;33672;-82
2021/06/22 14:28:59;;;;;;;3.50;3.20;;;;;;;37.16;33.67;99124.37;4361617;32;34530;-82
2021/06/22 14:31:28;;;;;;;5.43;4.93;;;;;;;36.57;34.05;99124.50;4362586;32;34261;-79
2021/06/22 14:33:56;;;;;;;7.03;2.78;;;;;;;36.66;35.62;99136.41;4364875;32;33238;-83
2021/06/22 14:36:24;;;;;;;8.27;3.78;;;;;;;37.06;34.22;99127.50;4352644;32;32201;-81
2021/06/22 14:38:52;;;;;;;6.47;3.75;;;;;;;37.17;33.99;99126.00;4366958;32;34920;-83
2021/06/22 14:41:20;;;;;;;6.78;3.42;;;;;;;36.54;33.91;99125.16;4377322;32;33545;-80
2021/06/22 14:43:48;;;;;;;3.65;2.83;;;;;;;36.93;33.44;99130.47;4349994;32;33122;-81
2021/06/22 14:46:17;;;;;;;11.27;3.30;;;;;;;37.31;33.82;99117.44;4359872;32;33561;-83
2021/06/22 14:48:45;;;;;;;3.10;2.90;;;;;;;36.68;34.30;99128.62;4359303;32;34779;-82
2021/06/22 14:51:14;;;;;;;7.12;3.58;;;;;;;36.90;34.00;99122.81;4354450;32;34374;-79
2021/06/22 14:53:41;;;;;;;2.90;2.60;;;;;;;37.94;31.38;99129.19;4363760;32;32670;-81
2021/06/22 14:56:09;;;;;;;8.55;3.87;;;;;;;37.66;33.18;99120.50;4360944;32;32711;-82
2021/06/22 14:58:38;;;;;;;16.08;4.82;;;;;;;37.34;32.61;99127.88;4367576;32;35912;-81
2021/06/22 15:01:06;;;;;;;4.68;3.97;;;;;;;37.93;31.91;99119.22;4361645;32;32655;-82
2021/06/22 15:03:34;;;;;;;6.93;3.58;;;;;;;36.52;33.04;99133.00;4384034;32;33231;-81
2021/06/22 15:06:14;;;;;;;15.80;4.78;;;;;;;36.86;32.86;99132.97;4390866;32;35798;-81
2021/06/22 15:08:43;;;;;;;7.68;3.85;;;;;;;37.14;32.72;99131.41;4368801;32;35568;-81
2021/06/22 15:11:11;;;;;;;3.33;2.58;;;;;;;36.89;33.01;99133.09;4360296;32;33766;-80
2021/06/22 15:13:39;;;;;;;3.45;3.05;;;;;;;37.10;33.56;99138.75;4374388;32;33383;-81
2021/06/22 15:16:20;;;;;;;5.82;4.28;;;;;;;36.94;33.44;99138.47;4380909;27;34750;-80
2021/06/22 15:19:11;;;;;;;5.07;3.65;;;;;;;36.78;33.82;99137.38;4397343;32;34707;-85
2021/06/22 15:21:41;;;;;;;15.73;4.18;;;;;;;36.39;33.67;99145.06;4379110;32;33999;-85
2021/06/22 15:24:14;;;;;;;3.33;2.70;;;;;;;36.53;33.06;99141.00;4377580;32;34104;-84
2021/06/22 15:26:52;;;;;;;5.53;3.67;;;;;;;37.15;32.32;99144.94;4365047;32;33215;-83
2021/06/22 15:29:25;;;;;;;4.12;3.75;;;;;;;35.67;34.81;99146.84;4379618;32;35810;-84
2021/06/22 15:31:56;;;;;;;4.18;2.78;;;;;;;35.83;34.64;99142.44;4383312;32;35034;-83
2021/06/22 15:34:26;;;;;;;3.97;2.70;;;;;;;36.07;34.23;99138.09;4366109;32;33358;-84
2021/06/22 15:36:56;;;;;;;3.87;3.15;;;;;;;35.96;34.64;99141.50;4389900;32;34647;-82
2021/06/22 15:39:26;;;;;;;5.07;3.42;;;;;;;36.04;35.47;99147.03;4376346;32;33782;-83
2021/06/22 15:41:56;;;;;;;11.45;2.30;;;;;;;35.98;36.53;99148.34;4389337;32;33253;-82
2021/06/22 15:44:26;;;;;;;4.35;3.00;;;;;;;36.56;34.65;99148.66;4365735;32;32221;-83
2021/06/22 15:46:55;;;;;;;3.60;3.08;;;;;;;36.16;34.91;99144.47;4376964;32;33345;-83
2021/06/22 15:49:23;;;;;;;6.03;2.80;;;;;;;36.86;34.57;99146.84;4361506;32;34033;-82
2021/06/22 15:51:56;;;;;;;4.87;2.83;;;;;;;36.20;33.52;99145.44;4386900;32;33070;-83
2021/06/22 15:54:25;;;;;;;2.58;2.37;;;;;;;36.18;34.75;99146.87;4363718;32;34738;-82
2021/06/22 15:56:55;;;;;;;12.60;3.05;;;;;;;36.00;35.24;99146.06;4388394;32;34634;-84
2021/06/22 15:59:28;;;;;;;2.78;2.53;;;;;;;36.16;36.52;99147.25;4377418;32;35850;-84
2021/06/22 16:02:17;;;;;;;2.65;2.45;;;;;;;35.51;36.53;99149.22;4391853;32;34232;-87
2021/06/22 16:04:47;;;;;;;3.30;2.55;;;;;;;35.94;36.42;99144.56;4377164;32;33368;-83
2021/06/22 16:07:17;;;;;;;2.92;2.70;;;;;;;36.17;36.36;99137.78;4360768;32;33072;-82
2021/06/22 16:09:48;;;;;;;6.20;1.87;;;;;;;36.19;36.16;99132.72;4371479;32;35071;-82
2021/06/22 16:12:21;;;;;;;2.55;2.35;;;;;;;35.94;35.70;99141.00;4394854;32;33126;-82
2021/06/22 16:14:51;;;;;;;5.50;4.07;;;;;;;36.22;34.66;99140.37;4389687;32;33329;-83
2021/06/22 16:17:19;;;;;;;3.87;2.40;;;;;;;35.24;36.85;99146.69;4383501;32;32569;-83
2021/06/22 16:19:48;;;;;;;7.10;1.87;;;;;;;35.55;37.65;99144.66;4422163;32;35031;-84
2021/06/22 16:22:16;;;;;;;3.40;2.70;;;;;;;35.61;37.85;99146.16;4381675;32;33592;-83
2021/06/22 16:24:48;;;;;;;6.35;3.10;;;;;;;35.96;36.67;99142.28;4408812;32;33415;-82
2021/06/22 16:27:18;;;;;;;7.03;2.42;;;;;;;36.09;36.28;99133.03;4395011;32;34728;-84
2021/06/22 16:34:08;;;;;;;2.35;1.55;;;;;;;35.91;36.16;99152.72;4402162;32;34145;-83
2021/06/22 16:54:30;;;;;;;4.18;2.97;;;;;;;35.67;37.86;99155.13;4397853;32;33398;-83
2021/06/22 16:57:54;;;;;;;3.70;2.67;;;;;;;35.51;37.98;99162.22;4382491;32;33970;-85
2021/06/22 17:09:20;;;;;;;2.87;1.95;;;;;;;35.11;38.22;99157.81;4375270;32;34595;-83
2021/06/22 17:18:59;;;;;;;6.28;3.55;;;;;;;35.18;37.88;99164.56;4373552;32;33735;-83
2021/06/22 17:29:23;;;;;;;2.42;1.92;;;;;;;35.33;36.64;99163.31;4286449;33;33939;-85
2021/06/22 18:01:00;;;;;;;2.28;1.83;;;;;;;34.28;38.90;99172.38;4356097;32;34688;-83
2021/06/22 18:36:00;;;;;;;3.00;1.60;;;;;;;33.60;40.08;99214.22;4397587;32;35528;-84
2021/06/22 19:25:48;;;;;;;3.92;1.55;;;;;;;31.66;42.99;99294.09;4420200;32;33251;-86
2021/06/22 19:29:26;;;;;;;2.03;1.50;;;;;;;31.59;42.58;99295.53;4403276;32;32738;-85
2021/06/22 19:57:38;;;;;;;3.90;2.65;;;;;;;30.67;47.52;99306.84;4314025;33;34321;-85
2021/06/22 20:12:06;;;;;;;4.50;2.60;;;;;;;30.16;49.89;99332.91;4306131;33;34008;-86
2021/06/22 20:50:43;;;;;;;1.50;1.40;;;;;;;29.50;49.73;99355.28;4358778;27;32813;-96
2021/06/22 20:57:21;;;;;;;3.15;2.10;;;;;;;29.31;50.21;99365.16;1575531;28;20367;-88
2021/06/22 21:07:07;;;;;;;3.33;3.10;;;;;;;28.64;52.65;99370.00;4376007;28;20096;-95
2021/06/22 21:09:45;;;;;;;3.72;3.42;;;;;;;28.16;53.96;99367.66;4539590;28;34959;-95
2021/06/22 21:19:16;;;;;;;7.82;3.25;;;;;;;28.57;52.21;99373.03;4225786;28;32686;-96
2021/06/22 21:23:19;;;;;;;5.03;2.28;;;;;;;28.64;52.05;99381.81;4557143;28;20082;-96
2021/06/22 21:26:43;;;;;;;7.32;2.78;;;;;;;28.72;51.66;99385.91;4231529;33;32927;-96
2021/06/22 21:29:46;;;;;;;4.53;3.03;;;;;;;28.41;52.51;99392.41;4259068;28;32640;-93
2021/06/22 21:33:01;;;;;;;3.95;1.98;;;;;;;28.26;53.21;99397.78;4218556;28;33406;-95
2021/06/22 21:36:12;;;;;;;6.68;2.65;;;;;;;28.43;52.47;99396.50;4238668;28;33015;-96
2021/06/22 21:49:43;;;;;;;4.18;2.40;;;;;;;28.09;53.51;99398.00;4249248;28;21320;-95
2021/06/22 22:00:36;;;;;;;4.12;3.62;;;;;;;27.26;55.51;99408.91;4245719;29;32909;-96
2021/06/22 22:07:48;;;;;;;4.47;3.22;;;;;;;27.80;54.02;99412.31;4193386;34;35035;-96
2021/06/22 22:35:35;;;;;;;4.00;1.62;;;;;;;27.47;54.91;99402.50;4163443;34;32272;-96
2021/06/22 22:49:39;;;;;;;3.33;2.28;;;;;;;27.26;55.72;99403.44;4193033;34;20115;-95
2021/06/22 22:56:49;;;;;;;3.28;2.37;;;;;;;27.38;55.30;99404.06;4158257;34;34439;-96
2021/06/22 23:00:19;;;;;;;5.93;3.30;;;;;;;27.26;55.77;99400.69;4177752;34;20155;-95
2021/06/22 23:07:48;;;;;;;7.07;3.22;;;;;;;27.50;54.68;99392.97;4261501;33;20114;-95
2021/06/22 23:51:48;;;;;;;2.62;2.40;;;;;;;27.13;55.33;99362.88;4207747;34;33700;-94
